createdAt,value
2023-09-23T00:01:27.024Z,84.97
2023-09-23T00:03:54.005Z,85.01
2023-09-23T00:06:23.581Z,84.95
2023-09-23T00:08:50.202Z,84.99
2023-09-23T00:11:16.778Z,85.21
2023-09-23T00:13:43.988Z,84.87
2023-09-23T00:16:12.518Z,85.36
2023-09-23T00:18:39.478Z,85.08
2023-09-23T00:21:09.234Z,85.03
2023-09-23T00:23:35.942Z,85.14
2023-09-23T00:26:03.800Z,85.40
2023-09-23T00:28:32.159Z,85.30
2023-09-23T00:31:06.596Z,85.01
2023-09-23T00:33:39.107Z,85.26
2023-09-23T00:36:08.394Z,85.25
2023-09-23T00:38:35.106Z,85.35
2023-09-23T00:41:02.204Z,85.26
2023-09-23T00:43:28.627Z,85.66
2023-09-23T00:45:59.818Z,85.84
2023-09-23T00:48:26.567Z,85.65
2023-09-23T00:50:55.825Z,85.98
2023-09-23T00:53:23.231Z,86.23
2023-09-23T00:55:53.743Z,86.30
2023-09-23T00:58:22.661Z,86.40
2023-09-23T01:00:50.311Z,86.79
2023-09-23T01:03:17.242Z,86.59
2023-09-23T01:05:45.216Z,86.68
2023-09-23T01:08:22.069Z,86.54
2023-09-23T01:10:49.484Z,87.07
2023-09-23T01:13:17.587Z,87.15
2023-09-23T01:15:44.395Z,87.36
2023-09-23T01:18:25.658Z,87.27
2023-09-23T01:20:57.140Z,87.39
2023-09-23T01:23:23.656Z,87.89
2023-09-23T01:25:50.155Z,87.86
2023-09-23T01:28:16.661Z,88.44
2023-09-23T01:30:46.877Z,88.36
2023-09-23T01:33:15.372Z,88.40
2023-09-23T01:35:43.053Z,88.48
2023-09-23T01:38:09.569Z,88.73
2023-09-23T01:40:39.487Z,88.99
2023-09-23T01:43:07.621Z,88.90
2023-09-23T01:45:34.038Z,89.31
2023-09-23T01:48:00.569Z,89.33
2023-09-23T01:50:28.934Z,89.25
2023-09-23T01:53:00.425Z,89.75
2023-09-23T01:55:27.993Z,89.80
2023-09-23T01:57:54.646Z,89.77
2023-09-23T02:00:30.184Z,89.80
2023-09-23T02:02:58.202Z,89.82
2023-09-23T02:05:28.423Z,89.66
2023-09-23T02:07:55.760Z,89.52
2023-09-23T02:10:25.532Z,89.79
2023-09-23T02:12:52.207Z,89.59
2023-09-23T02:15:18.707Z,89.37
2023-09-23T02:17:46.366Z,89.67
2023-09-23T02:20:20.461Z,89.65
2023-09-23T02:22:54.474Z,89.79
2023-09-23T02:25:25.866Z,89.51
2023-09-23T02:27:53.393Z,89.71
2023-09-23T02:30:20.075Z,89.44
2023-09-23T02:32:48.057Z,89.63
2023-09-23T02:35:17.061Z,89.40
2023-09-23T02:37:46.236Z,89.53
2023-09-23T02:40:15.307Z,89.50
2023-09-23T02:42:43.479Z,89.89
2023-09-23T02:45:10.958Z,89.84
2023-09-23T02:47:38.683Z,89.75
2023-09-23T02:50:10.756Z,89.81
2023-09-23T02:52:40.042Z,89.93
2023-09-23T02:55:14.264Z,89.88
2023-09-23T02:57:42.489Z,89.75
2023-09-23T03:00:17.807Z,89.90
2023-09-23T03:02:46.859Z,90.09
2023-09-23T03:05:17.830Z,90.03
2023-09-23T03:07:51.345Z,90.23
2023-09-23T03:10:31.092Z,90.27
2023-09-23T03:13:03.515Z,90.37
2023-09-23T03:15:35.575Z,90.48
2023-09-23T03:18:02.460Z,90.48
2023-09-23T03:20:29.145Z,90.64
2023-09-23T03:22:55.770Z,90.84
2023-09-23T03:25:22.388Z,90.74
2023-09-23T03:27:49.968Z,90.82
2023-09-23T03:30:18.217Z,91.02
2023-09-23T03:32:48.115Z,90.70
2023-09-23T03:35:18.632Z,90.86
2023-09-23T03:37:50.786Z,90.63
2023-09-23T03:40:22.213Z,91.01
2023-09-23T03:42:49.568Z,90.62
2023-09-23T03:45:16.332Z,90.80
2023-09-23T03:47:42.943Z,90.80
2023-09-23T03:50:09.719Z,90.81
2023-09-23T03:52:37.822Z,91.07
2023-09-23T03:55:05.035Z,90.86
2023-09-23T03:57:31.321Z,90.91
2023-09-23T03:59:57.627Z,90.63
2023-09-23T04:02:24.350Z,90.97
2023-09-23T04:04:54.947Z,91.07
2023-09-23T04:07:22.141Z,91.20
2023-09-23T04:09:49.167Z,91.16
2023-09-23T04:12:15.643Z,91.12
2023-09-23T04:14:42.475Z,90.83
2023-09-23T04:17:08.979Z,91.01
2023-09-23T04:19:35.439Z,91.13
2023-09-23T04:22:01.828Z,90.87
2023-09-23T04:24:28.219Z,90.87
2023-09-23T04:26:54.960Z,90.84
2023-09-23T04:29:22.222Z,90.78
2023-09-23T04:31:50.446Z,90.96
2023-09-23T04:34:18.308Z,90.98
2023-09-23T04:36:45.947Z,91.38
2023-09-23T04:39:12.422Z,91.27
2023-09-23T04:41:41.298Z,91.44
2023-09-23T04:44:08.697Z,91.28
2023-09-23T04:46:35.127Z,91.20
2023-09-23T04:49:01.602Z,91.25
2023-09-23T04:51:27.945Z,91.48
2023-09-23T04:53:54.432Z,91.54
2023-09-23T04:56:21.195Z,91.10
2023-09-23T04:58:47.858Z,91.34
2023-09-23T05:01:15.452Z,91.12
2023-09-23T05:03:43.355Z,91.19
2023-09-23T05:06:11.609Z,91.35
2023-09-23T05:08:38.201Z,91.19
2023-09-23T05:11:07.629Z,91.15
2023-09-23T05:13:34.031Z,91.51
2023-09-23T05:16:00.584Z,91.85
2023-09-23T05:18:27.127Z,91.68
2023-09-23T05:20:53.790Z,91.69
2023-09-23T05:23:24.169Z,91.42
2023-09-23T05:25:51.355Z,91.96
2023-09-23T05:28:17.726Z,91.59
2023-09-23T05:30:44.136Z,91.83
2023-09-23T05:33:11.859Z,91.48
2023-09-23T05:35:39.373Z,91.73
2023-09-23T05:38:06.143Z,91.90
2023-09-23T05:40:37.530Z,91.93
2023-09-23T05:43:04.408Z,91.96
2023-09-23T05:45:31.156Z,92.00
2023-09-23T05:47:57.664Z,91.72
2023-09-23T05:50:24.518Z,91.85
2023-09-23T05:52:51.285Z,92.23
2023-09-23T05:55:17.867Z,92.20
2023-09-23T05:57:45.082Z,92.33
2023-09-23T06:00:13.384Z,92.23
2023-09-23T06:02:40.542Z,92.32
2023-09-23T06:05:07.280Z,91.84
2023-09-23T06:07:33.704Z,92.24
2023-09-23T06:10:01.105Z,92.01
2023-09-23T06:12:30.606Z,92.20
2023-09-23T06:15:01.108Z,91.82
2023-09-23T06:17:33.607Z,91.99
2023-09-23T06:20:01.265Z,91.92
2023-09-23T06:22:28.672Z,91.92
2023-09-23T06:24:55.816Z,91.96
2023-09-23T06:27:22.331Z,92.20
2023-09-23T06:29:48.988Z,92.15
2023-09-23T06:32:15.409Z,92.00
2023-09-23T06:34:41.845Z,92.28
2023-09-23T06:37:08.512Z,91.93
2023-09-23T06:39:34.940Z,91.75
2023-09-23T06:42:01.438Z,91.71
2023-09-23T06:44:27.994Z,92.01
2023-09-23T06:46:54.613Z,92.08
2023-09-23T06:49:21.166Z,91.83
2023-09-23T06:51:47.584Z,91.99
2023-09-23T06:54:14.050Z,91.85
2023-09-23T06:56:40.519Z,91.87
2023-09-23T06:59:07.042Z,91.88
2023-09-23T07:01:35.933Z,91.94
2023-09-23T07:04:03.397Z,91.53
2023-09-23T07:06:30.051Z,91.87
2023-09-23T07:08:56.926Z,91.68
2023-09-23T07:11:24.753Z,91.60
2023-09-23T07:13:51.818Z,91.53
2023-09-23T07:16:18.454Z,91.63
2023-09-23T07:18:45.936Z,91.67
2023-09-23T07:21:13.201Z,91.65
2023-09-23T07:23:39.806Z,91.72
2023-09-23T07:26:06.800Z,91.75
2023-09-23T07:28:33.325Z,91.38
2023-09-23T07:30:59.781Z,91.34
2023-09-23T07:33:26.231Z,91.77
2023-09-23T07:35:52.708Z,91.62
2023-09-23T07:38:19.192Z,91.32
2023-09-23T07:40:45.772Z,91.05
2023-09-23T07:43:12.241Z,90.84
2023-09-23T07:45:38.704Z,90.76
2023-09-23T07:48:05.532Z,90.56
2023-09-23T07:50:32.739Z,90.40
2023-09-23T07:52:59.431Z,90.36
2023-09-23T07:55:25.921Z,90.55
2023-09-23T07:57:53.316Z,90.58
2023-09-23T08:00:20.957Z,90.65
2023-09-23T08:02:47.559Z,90.31
2023-09-23T08:05:14.222Z,90.41
2023-09-23T08:07:40.699Z,90.27
2023-09-23T08:10:07.384Z,90.37
2023-09-23T08:12:35.671Z,90.35
2023-09-23T08:15:02.174Z,90.17
2023-09-23T08:17:28.716Z,89.81
2023-09-23T08:19:55.271Z,89.42
2023-09-23T08:22:21.864Z,89.23
2023-09-23T08:24:48.342Z,88.98
2023-09-23T08:27:14.922Z,89.07
2023-09-23T08:29:41.338Z,88.62
2023-09-23T08:32:07.908Z,88.10
2023-09-23T08:34:34.777Z,87.82
2023-09-23T08:37:01.830Z,88.08
2023-09-23T08:39:28.305Z,88.11
2023-09-23T08:41:55.966Z,87.81
2023-09-23T08:44:23.867Z,87.86
2023-09-23T08:46:53.920Z,87.79
2023-09-23T08:49:24.893Z,88.09
2023-09-23T08:51:56.402Z,88.19
2023-09-23T08:54:26.504Z,88.30
2023-09-23T08:56:55.480Z,87.53
2023-09-23T08:59:22.163Z,87.67
2023-09-23T09:01:48.675Z,87.99
2023-09-23T09:04:16.281Z,88.10
2023-09-23T09:06:54.227Z,87.83
2023-09-23T09:09:20.949Z,87.64
2023-09-23T09:11:54.804Z,87.68
2023-09-23T09:14:23.877Z,87.85
2023-09-23T09:16:50.503Z,87.86
2023-09-23T09:19:17.666Z,87.28
2023-09-23T09:21:44.086Z,87.53
2023-09-23T09:24:10.673Z,87.54
2023-09-23T09:26:39.201Z,87.27
2023-09-23T09:29:05.906Z,87.04
2023-09-23T09:31:36.567Z,87.04
2023-09-23T09:34:10.763Z,87.23
2023-09-23T09:36:41.495Z,86.85
2023-09-23T09:39:11.822Z,87.23
2023-09-23T09:41:52.023Z,86.99
2023-09-23T09:44:22.541Z,87.23
2023-09-23T09:46:50.051Z,86.51
2023-09-23T09:49:18.067Z,86.31
2023-09-23T09:51:52.684Z,86.55
2023-09-23T09:54:22.000Z,85.88
2023-09-23T09:56:51.188Z,86.07
2023-09-23T09:59:30.153Z,85.48
2023-09-23T10:01:58.488Z,85.58
2023-09-23T10:04:31.775Z,85.34
2023-09-23T10:06:58.232Z,85.08
2023-09-23T10:09:28.377Z,85.32
2023-09-23T10:11:57.364Z,85.52
2023-09-23T10:14:24.112Z,85.62
2023-09-23T10:16:53.143Z,86.35
2023-09-23T10:19:49.068Z,87.00
2023-09-23T10:22:22.244Z,87.11
2023-09-23T10:25:05.641Z,87.52
2023-09-23T10:27:33.582Z,88.24
2023-09-23T10:30:01.746Z,87.99
2023-09-23T10:32:28.281Z,88.13
2023-09-23T10:34:59.978Z,87.71
2023-09-23T10:37:34.208Z,87.73
2023-09-23T10:40:10.097Z,87.15
2023-09-23T10:42:36.757Z,87.08
2023-09-23T10:45:04.371Z,87.39
2023-09-23T10:47:30.963Z,87.43
2023-09-23T10:49:57.953Z,86.26
2023-09-23T10:52:24.375Z,86.00
2023-09-23T10:54:50.987Z,85.94
2023-09-23T10:57:17.433Z,84.06
2023-09-23T10:59:46.740Z,84.39
2023-09-23T11:02:14.339Z,84.48
2023-09-23T11:04:49.711Z,83.78
2023-09-23T11:07:17.838Z,82.48
2023-09-23T11:09:47.762Z,81.47
2023-09-23T11:12:16.405Z,81.98
2023-09-23T11:14:46.680Z,81.89
2023-09-23T11:17:30.697Z,82.12
2023-09-23T11:19:59.530Z,81.80
2023-09-23T11:22:31.960Z,81.84
2023-09-23T11:24:59.209Z,81.62
2023-09-23T11:27:26.840Z,81.25
2023-09-23T11:29:54.335Z,81.29
2023-09-23T11:32:25.819Z,82.00
2023-09-23T11:34:53.657Z,82.68
2023-09-23T11:37:21.986Z,82.66
2023-09-23T11:39:48.440Z,83.00
2023-09-23T11:42:14.806Z,83.99
2023-09-23T11:44:41.379Z,83.00
2023-09-23T11:47:07.865Z,83.09
2023-09-23T11:49:34.348Z,82.84
2023-09-23T11:52:00.794Z,82.96
2023-09-23T11:54:27.269Z,81.55
2023-09-23T11:56:53.685Z,80.94
2023-09-23T11:59:22.305Z,79.84
2023-09-23T12:01:51.584Z,80.03
2023-09-23T12:04:18.118Z,80.68
2023-09-23T12:06:46.535Z,80.85
2023-09-23T12:09:13.062Z,81.13
2023-09-23T12:11:39.643Z,81.13
2023-09-23T12:14:06.222Z,80.58
2023-09-23T12:16:32.607Z,80.93
2023-09-23T12:18:59.013Z,79.37
2023-09-23T12:21:25.601Z,77.57
2023-09-23T12:23:59.446Z,76.12
2023-09-23T12:26:27.370Z,74.23
2023-09-23T12:28:54.332Z,75.11
2023-09-23T12:31:20.901Z,73.48
2023-09-23T12:33:47.531Z,74.47
2023-09-23T12:36:13.995Z,73.95
2023-09-23T12:38:40.660Z,74.97
2023-09-23T12:41:07.331Z,74.57
2023-09-23T12:43:33.992Z,75.42
2023-09-23T12:46:00.644Z,78.86
2023-09-23T12:48:27.249Z,79.74
2023-09-23T12:50:53.734Z,81.10
2023-09-23T12:53:20.840Z,82.28
2023-09-23T12:55:47.448Z,82.23
2023-09-23T12:58:14.368Z,83.36
2023-09-23T13:00:42.636Z,83.79
2023-09-23T13:03:12.619Z,83.43
2023-09-23T13:05:39.637Z,83.03
2023-09-23T13:08:07.007Z,83.32
2023-09-23T13:10:36.774Z,82.06
2023-09-23T13:13:04.094Z,80.74
2023-09-23T13:15:30.604Z,80.97
2023-09-23T13:17:57.781Z,80.07
2023-09-23T13:20:24.621Z,79.40
2023-09-23T13:22:51.089Z,79.25
2023-09-23T13:25:17.573Z,79.53
2023-09-23T13:27:44.026Z,78.91
2023-09-23T13:30:10.961Z,79.50
2023-09-23T13:32:40.330Z,79.68
2023-09-23T13:35:13.083Z,80.07
2023-09-23T13:37:39.954Z,80.95
2023-09-23T13:40:07.041Z,81.24
2023-09-23T13:42:33.595Z,82.32
2023-09-23T13:45:00.631Z,81.85
2023-09-23T13:47:27.424Z,82.48
2023-09-23T13:49:53.899Z,82.52
2023-09-23T13:52:20.491Z,82.91
2023-09-23T13:54:47.169Z,83.02
2023-09-23T13:57:13.736Z,83.70
2023-09-23T13:59:40.460Z,83.65
2023-09-23T14:02:13.358Z,83.55
2023-09-23T14:04:39.746Z,83.81
2023-09-23T14:07:06.178Z,83.70
2023-09-23T14:09:33.829Z,83.86
2023-09-23T14:12:01.625Z,83.97
2023-09-23T14:14:28.307Z,84.04
2023-09-23T14:16:54.870Z,84.33
2023-09-23T14:19:21.320Z,84.82
2023-09-23T14:21:47.982Z,84.80
2023-09-23T14:24:14.970Z,84.65
2023-09-23T14:26:41.659Z,84.53
2023-09-23T14:29:08.193Z,84.80
2023-09-23T14:31:34.810Z,84.37
2023-09-23T14:34:02.779Z,84.16
2023-09-23T14:36:29.196Z,84.76
2023-09-23T14:38:55.574Z,83.89
2023-09-23T14:41:22.079Z,82.00
2023-09-23T14:43:48.582Z,81.92
2023-09-23T14:46:15.176Z,82.24
2023-09-23T14:48:41.712Z,81.49
2023-09-23T14:51:08.104Z,80.35
2023-09-23T14:53:34.505Z,80.93
2023-09-23T14:56:00.964Z,81.10
2023-09-23T14:58:27.411Z,81.07
2023-09-23T15:00:53.796Z,81.20
2023-09-23T15:03:20.248Z,80.75
2023-09-23T15:05:47.366Z,81.13
2023-09-23T15:08:13.943Z,81.13
2023-09-23T15:10:40.517Z,81.05
2023-09-23T15:13:06.986Z,81.00
2023-09-23T15:15:33.524Z,80.33
2023-09-23T15:18:00.076Z,80.40
2023-09-23T15:20:26.620Z,80.49
2023-09-23T15:22:53.064Z,80.53
2023-09-23T15:25:19.557Z,80.63
2023-09-23T15:27:45.966Z,80.33
2023-09-23T15:30:12.781Z,80.06
2023-09-23T15:32:39.389Z,79.46
2023-09-23T15:35:07.876Z,79.18
2023-09-23T15:37:35.720Z,78.92
2023-09-23T15:40:02.291Z,79.37
2023-09-23T15:42:31.486Z,79.54
2023-09-23T15:44:58.451Z,79.84
2023-09-23T15:47:25.072Z,80.26
2023-09-23T15:49:51.566Z,80.13
2023-09-23T15:52:18.580Z,80.01
2023-09-23T15:54:45.019Z,79.87
2023-09-23T15:57:14.084Z,79.83
2023-09-23T15:59:40.650Z,79.93
2023-09-23T16:02:07.646Z,79.97
2023-09-23T16:04:34.909Z,80.44
2023-09-23T16:07:01.441Z,80.33
2023-09-23T16:09:27.945Z,79.85
2023-09-23T16:11:54.385Z,79.85
2023-09-23T16:14:20.954Z,79.30
2023-09-23T16:16:47.526Z,79.03
2023-09-23T16:19:14.159Z,78.68
2023-09-23T16:21:40.616Z,78.98
2023-09-23T16:24:07.347Z,78.98
2023-09-23T16:26:35.189Z,79.81
2023-09-23T16:29:02.112Z,79.79
2023-09-23T16:31:28.740Z,79.96
2023-09-23T16:33:56.273Z,80.41
2023-09-23T16:36:24.390Z,80.74
2023-09-23T16:38:51.688Z,81.00
2023-09-23T16:41:18.114Z,81.08
2023-09-23T16:43:46.281Z,81.09
2023-09-23T16:46:12.866Z,81.03
2023-09-23T16:48:39.386Z,81.36
2023-09-23T16:51:05.811Z,81.28
2023-09-23T16:53:33.353Z,81.01
2023-09-23T16:56:00.044Z,81.12
2023-09-23T16:58:26.535Z,81.06
2023-09-23T17:00:53.915Z,80.79
2023-09-23T17:03:22.442Z,80.97
2023-09-23T17:05:53.255Z,81.82
2023-09-23T17:08:19.676Z,82.15
2023-09-23T17:10:46.192Z,82.45
2023-09-23T17:13:15.390Z,82.34
2023-09-23T17:15:42.753Z,82.96
2023-09-23T17:18:09.396Z,82.76
2023-09-23T17:20:36.011Z,82.80
2023-09-23T17:23:02.679Z,82.89
2023-09-23T17:25:29.167Z,83.27
2023-09-23T17:27:55.599Z,83.42
2023-09-23T17:30:22.949Z,83.44
2023-09-23T17:32:49.633Z,83.52
2023-09-23T17:35:17.709Z,83.65
2023-09-23T17:37:44.122Z,83.80
2023-09-23T17:40:10.784Z,83.24
2023-09-23T17:42:37.171Z,82.64
2023-09-23T17:45:03.924Z,81.79
2023-09-23T17:47:30.370Z,81.66
2023-09-23T17:49:57.216Z,81.51
2023-09-23T17:52:23.675Z,81.61
2023-09-23T17:54:50.188Z,81.76
2023-09-23T17:57:16.779Z,81.71
2023-09-23T17:59:43.278Z,81.85
2023-09-23T18:02:09.952Z,81.63
2023-09-23T18:04:36.667Z,81.39
2023-09-23T18:07:04.887Z,81.29
2023-09-23T18:09:31.381Z,81.31
2023-09-23T18:11:57.934Z,81.71
2023-09-23T18:14:24.480Z,81.43
2023-09-23T18:16:50.945Z,81.73
2023-09-23T18:19:17.462Z,81.59
2023-09-23T18:21:44.095Z,81.78
2023-09-23T18:24:10.708Z,82.23
2023-09-23T18:26:38.052Z,82.25
2023-09-23T18:29:04.697Z,82.21
2023-09-23T18:31:33.301Z,82.16
2023-09-23T18:33:59.904Z,82.10
2023-09-23T18:36:26.420Z,82.52
2023-09-23T18:38:53.105Z,82.30
2023-09-23T18:41:19.782Z,82.67
2023-09-23T18:43:46.512Z,82.78
2023-09-23T18:46:13.626Z,82.94
2023-09-23T18:48:40.329Z,82.75
2023-09-23T18:51:06.864Z,82.92
2023-09-23T18:53:33.997Z,82.66
2023-09-23T18:56:02.569Z,82.69
2023-09-23T18:58:29.071Z,82.99
2023-09-23T19:00:55.654Z,83.04
2023-09-23T19:03:22.232Z,83.10
2023-09-23T19:05:49.966Z,83.17
2023-09-23T19:08:16.698Z,83.48
2023-09-23T19:10:43.235Z,83.38
2023-09-23T19:13:09.704Z,83.30
2023-09-23T19:15:36.174Z,83.76
2023-09-23T19:18:02.982Z,83.75
2023-09-23T19:20:29.740Z,83.72
2023-09-23T19:22:56.157Z,83.63
2023-09-23T19:25:22.957Z,83.68
2023-09-23T19:27:49.543Z,83.64
2023-09-23T19:30:16.384Z,84.01
2023-09-23T19:32:43.113Z,83.62
2023-09-23T19:35:10.218Z,83.77
2023-09-23T19:37:38.663Z,84.20
2023-09-23T19:40:06.455Z,83.98
2023-09-23T19:42:34.092Z,84.16
2023-09-23T19:45:03.822Z,84.45
2023-09-23T19:47:31.946Z,84.17
2023-09-23T19:50:00.434Z,84.26
2023-09-23T19:52:30.216Z,84.35
2023-09-23T19:54:57.131Z,84.26
2023-09-23T19:57:23.742Z,84.67
2023-09-23T19:59:50.312Z,84.08
2023-09-23T20:02:17.047Z,84.24
2023-09-23T20:04:46.126Z,83.75
2023-09-23T20:07:13.696Z,84.19
2023-09-23T20:09:41.469Z,83.61
2023-09-23T20:12:08.518Z,84.00
2023-09-23T20:14:35.041Z,84.04
2023-09-23T20:17:03.945Z,83.63
2023-09-23T20:19:30.798Z,83.92
2023-09-23T20:21:57.293Z,83.41
2023-09-23T20:24:24.255Z,83.87
2023-09-23T20:26:54.083Z,84.03
2023-09-23T20:29:23.593Z,83.64
2023-09-23T20:31:50.239Z,84.01
2023-09-23T20:34:20.076Z,84.10
2023-09-23T20:36:46.564Z,84.01
2023-09-23T20:39:13.217Z,84.01
2023-09-23T20:41:39.997Z,84.39
2023-09-23T20:44:06.668Z,84.25
2023-09-23T20:46:33.786Z,84.48
2023-09-23T20:49:01.499Z,84.42
2023-09-23T20:51:27.962Z,84.48
2023-09-23T20:53:55.741Z,84.56
2023-09-23T20:56:22.439Z,84.00
2023-09-23T20:58:48.922Z,84.20
2023-09-23T21:01:15.430Z,84.60
2023-09-23T21:03:42.855Z,84.65
2023-09-23T21:06:09.944Z,84.68
2023-09-23T21:08:36.486Z,84.23
2023-09-23T21:11:03.066Z,84.30
2023-09-23T21:13:29.568Z,84.39
2023-09-23T21:16:06.095Z,84.24
2023-09-23T21:18:32.771Z,84.23
2023-09-23T21:20:59.352Z,84.81
2023-09-23T21:23:26.023Z,84.75
2023-09-23T21:25:56.076Z,84.53
2023-09-23T21:28:22.495Z,84.85
2023-09-23T21:30:49.142Z,85.08
2023-09-23T21:33:15.849Z,84.74
2023-09-23T21:35:42.525Z,85.03
2023-09-23T21:38:09.213Z,85.01
2023-09-23T21:40:42.036Z,85.32
2023-09-23T21:43:09.022Z,85.44
2023-09-23T21:45:35.505Z,85.40
2023-09-23T21:48:05.050Z,85.35
2023-09-23T21:50:31.511Z,85.15
2023-09-23T21:52:58.016Z,85.66
2023-09-23T21:55:24.478Z,85.73
2023-09-23T21:57:50.890Z,84.99
2023-09-23T22:00:27.803Z,85.18
2023-09-23T22:02:59.714Z,85.29
2023-09-23T22:05:27.718Z,85.52
2023-09-23T22:08:01.741Z,85.61
2023-09-23T22:10:28.903Z,85.18
2023-09-23T22:12:56.688Z,85.44
2023-09-23T22:15:24.382Z,85.70
2023-09-23T22:17:50.995Z,85.45
2023-09-23T22:20:20.900Z,85.51
2023-09-23T22:22:48.094Z,85.36
2023-09-23T22:25:27.066Z,85.57
2023-09-23T22:27:54.473Z,85.18
2023-09-23T22:30:25.601Z,85.42
2023-09-23T22:32:57.206Z,85.00
2023-09-23T22:35:25.330Z,85.40
2023-09-23T22:37:52.375Z,85.11
2023-09-23T22:40:18.892Z,85.34
2023-09-23T22:42:45.383Z,85.26
2023-09-23T22:45:23.704Z,84.94
2023-09-23T22:48:02.580Z,84.95
2023-09-23T22:50:29.645Z,84.90
2023-09-23T22:52:57.240Z,84.91
2023-09-23T22:55:25.146Z,85.07
2023-09-23T22:57:55.433Z,85.05
2023-09-23T23:00:26.688Z,85.27
2023-09-23T23:02:54.193Z,84.97
2023-09-23T23:05:20.986Z,85.32
2023-09-23T23:07:53.698Z,85.33
2023-09-23T23:10:20.738Z,85.04
2023-09-23T23:12:47.749Z,85.12
2023-09-23T23:15:16.369Z,85.34
2023-09-23T23:17:47.019Z,85.35
2023-09-23T23:20:16.215Z,85.45
2023-09-23T23:22:42.994Z,85.33
2023-09-23T23:25:11.030Z,85.70
2023-09-23T23:27:37.445Z,85.69
2023-09-23T23:30:04.703Z,85.53
2023-09-23T23:32:31.309Z,85.54
2023-09-23T23:34:59.045Z,85.74
2023-09-23T23:37:25.795Z,85.77
2023-09-23T23:39:52.289Z,86.19
2023-09-23T23:42:18.849Z,85.73
2023-09-23T23:44:52.283Z,86.15
2023-09-23T23:47:22.196Z,85.85
2023-09-23T23:49:50.993Z,85.96
2023-09-23T23:52:18.422Z,85.34
2023-09-23T23:54:45.496Z,85.31
2023-09-23T23:57:14.056Z,84.96
2023-09-23T23:59:41.351Z,84.82
